sensor_id;sensor_type;location;lat;lon;timestamp;pressure;altitude;pressure_sealevel;temperature
45850;BMP180;10739;52.198;20.908;2022-12-26T00:00:30;100569.00;;;7.90
45850;BMP180;10739;52.198;20.908;2022-12-26T00:02:56;100571.00;;;7.80
45850;BMP180;10739;52.198;20.908;2022-12-26T00:05:23;100581.00;;;7.70
45850;BMP180;10739;52.198;20.908;2022-12-26T00:07:49;100591.00;;;7.70
45850;BMP180;10739;52.198;20.908;2022-12-26T00:10:16;100576.00;;;7.50
45850;BMP180;10739;52.198;20.908;2022-12-26T00:12:42;100575.00;;;7.80
45850;BMP180;10739;52.198;20.908;2022-12-26T00:15:09;100576.00;;;7.70
45850;BMP180;10739;52.198;20.908;2022-12-26T00:17:35;100564.00;;;7.80
45850;BMP180;10739;52.198;20.908;2022-12-26T00:20:02;100562.00;;;8.10
45850;BMP180;10739;52.198;20.908;2022-12-26T00:22:29;100571.00;;;7.70
45850;BMP180;10739;52.198;20.908;2022-12-26T00:24:55;100576.00;;;7.70
45850;BMP180;10739;52.198;20.908;2022-12-26T00:27:21;100560.00;;;7.80
45850;BMP180;10739;52.198;20.908;2022-12-26T00:29:48;100550.00;;;7.70
45850;BMP180;10739;52.198;20.908;2022-12-26T00:32:14;100555.00;;;7.60
45850;BMP180;10739;52.198;20.908;2022-12-26T00:34:41;100541.00;;;7.60
45850;BMP180;10739;52.198;20.908;2022-12-26T00:37:07;100543.00;;;7.70
45850;BMP180;10739;52.198;20.908;2022-12-26T00:39:34;100549.00;;;7.80
45850;BMP180;10739;52.198;20.908;2022-12-26T00:42:00;100550.00;;;7.80
45850;BMP180;10739;52.198;20.908;2022-12-26T00:44:26;100548.00;;;7.90
45850;BMP180;10739;52.198;20.908;2022-12-26T00:46:53;100559.00;;;7.60
45850;BMP180;10739;52.198;20.908;2022-12-26T00:49:19;100552.00;;;7.60
45850;BMP180;10739;52.198;20.908;2022-12-26T00:51:46;100551.00;;;7.80
45850;BMP180;10739;52.198;20.908;2022-12-26T00:54:12;100550.00;;;7.80
45850;BMP180;10739;52.198;20.908;2022-12-26T00:56:38;100553.00;;;7.80
45850;BMP180;10739;52.198;20.908;2022-12-26T00:59:05;100549.00;;;7.80
45850;BMP180;10739;52.198;20.908;2022-12-26T01:01:31;100535.00;;;7.70
45850;BMP180;10739;52.198;20.908;2022-12-26T01:03:59;100527.00;;;7.70
45850;BMP180;10739;52.198;20.908;2022-12-26T01:06:25;100528.00;;;7.80
45850;BMP180;10739;52.198;20.908;2022-12-26T01:08:52;100520.00;;;7.90
45850;BMP180;10739;52.198;20.908;2022-12-26T01:11:18;100512.00;;;7.70
45850;BMP180;10739;52.198;20.908;2022-12-26T01:14:05;100520.00;;;7.70
45850;BMP180;10739;52.198;20.908;2022-12-26T01:16:32;100502.00;;;7.90
45850;BMP180;10739;52.198;20.908;2022-12-26T01:18:58;100493.00;;;7.60
45850;BMP180;10739;52.198;20.908;2022-12-26T01:21:25;100494.00;;;8.10
45850;BMP180;10739;52.198;20.908;2022-12-26T01:23:53;100505.00;;;8.10
45850;BMP180;10739;52.198;20.908;2022-12-26T01:26:20;100512.00;;;7.70
45850;BMP180;10739;52.198;20.908;2022-12-26T01:28:48;100503.00;;;7.60
45850;BMP180;10739;52.198;20.908;2022-12-26T01:31:16;100495.00;;;7.70
45850;BMP180;10739;52.198;20.908;2022-12-26T01:33:42;100501.00;;;7.70
45850;BMP180;10739;52.198;20.908;2022-12-26T01:36:09;100506.00;;;7.70
45850;BMP180;10739;52.198;20.908;2022-12-26T01:38:35;100521.00;;;8.00
45850;BMP180;10739;52.198;20.908;2022-12-26T01:41:02;100513.00;;;7.80
45850;BMP180;10739;52.198;20.908;2022-12-26T01:43:55;100509.00;;;7.50
45850;BMP180;10739;52.198;20.908;2022-12-26T01:46:43;100502.00;;;8.00
45850;BMP180;10739;52.198;20.908;2022-12-26T01:49:21;100503.00;;;7.80
45850;BMP180;10739;52.198;20.908;2022-12-26T01:51:58;100513.00;;;7.90
45850;BMP180;10739;52.198;20.908;2022-12-26T01:54:29;100505.00;;;7.90
45850;BMP180;10739;52.198;20.908;2022-12-26T01:57:04;100494.00;;;7.90
45850;BMP180;10739;52.198;20.908;2022-12-26T01:59:37;100485.00;;;8.20
45850;BMP180;10739;52.198;20.908;2022-12-26T02:02:05;100488.00;;;7.90
45850;BMP180;10739;52.198;20.908;2022-12-26T02:04:38;100476.00;;;8.20
45850;BMP180;10739;52.198;20.908;2022-12-26T02:07:26;100484.00;;;8.30
45850;BMP180;10739;52.198;20.908;2022-12-26T02:09:53;100481.00;;;8.20
45850;BMP180;10739;52.198;20.908;2022-12-26T02:12:27;100472.00;;;8.10
45850;BMP180;10739;52.198;20.908;2022-12-26T02:14:57;100473.00;;;8.10
45850;BMP180;10739;52.198;20.908;2022-12-26T02:17:27;100464.00;;;8.10
45850;BMP180;10739;52.198;20.908;2022-12-26T02:20:30;100455.00;;;7.70
45850;BMP180;10739;52.198;20.908;2022-12-26T02:29:51;100454.00;;;8.10
45850;BMP180;10739;52.198;20.908;2022-12-26T02:32:47;100433.00;;;8.00
45850;BMP180;10739;52.198;20.908;2022-12-26T02:54:14;100400.00;;;7.70
45850;BMP180;10739;52.198;20.908;2022-12-26T02:57:07;100398.00;;;8.00
45850;BMP180;10739;52.198;20.908;2022-12-26T03:00:11;100395.00;;;7.60
45850;BMP180;10739;52.198;20.908;2022-12-26T03:03:16;100405.00;;;7.80
45850;BMP180;10739;52.198;20.908;2022-12-26T03:06:16;100391.00;;;7.80
45850;BMP180;10739;52.198;20.908;2022-12-26T03:09:13;100369.00;;;8.00
45850;BMP180;10739;52.198;20.908;2022-12-26T03:12:34;100354.00;;;7.80
45850;BMP180;10739;52.198;20.908;2022-12-26T03:15:24;100364.00;;;8.00
45850;BMP180;10739;52.198;20.908;2022-12-26T03:18:02;100355.00;;;7.80
45850;BMP180;10739;52.198;20.908;2022-12-26T03:20:34;100347.00;;;7.90
45850;BMP180;10739;52.198;20.908;2022-12-26T03:23:10;100340.00;;;7.80
45850;BMP180;10739;52.198;20.908;2022-12-26T03:25:51;100343.00;;;7.90
45850;BMP180;10739;52.198;20.908;2022-12-26T03:28:38;100333.00;;;7.80
45850;BMP180;10739;52.198;20.908;2022-12-26T03:31:12;100317.00;;;7.70
45850;BMP180;10739;52.198;20.908;2022-12-26T03:33:43;100316.00;;;8.00
45850;BMP180;10739;52.198;20.908;2022-12-26T03:47:06;100286.00;;;7.90
45850;BMP180;10739;52.198;20.908;2022-12-26T03:49:32;100276.00;;;7.80
45850;BMP180;10739;52.198;20.908;2022-12-26T03:52:39;100271.00;;;7.60
45850;BMP180;10739;52.198;20.908;2022-12-26T03:55:46;100285.00;;;7.40
45850;BMP180;10739;52.198;20.908;2022-12-26T03:58:55;100285.00;;;7.50
45850;BMP180;10739;52.198;20.908;2022-12-26T04:01:42;100266.00;;;7.50
45850;BMP180;10739;52.198;20.908;2022-12-26T04:04:33;100252.00;;;7.80
45850;BMP180;10739;52.198;20.908;2022-12-26T04:07:32;100244.00;;;7.10
45850;BMP180;10739;52.198;20.908;2022-12-26T04:10:24;100234.00;;;8.00
45850;BMP180;10739;52.198;20.908;2022-12-26T04:13:22;100229.00;;;7.40
45850;BMP180;10739;52.198;20.908;2022-12-26T04:26:07;100216.00;;;7.70
45850;BMP180;10739;52.198;20.908;2022-12-26T04:28:44;100203.00;;;7.50
45850;BMP180;10739;52.198;20.908;2022-12-26T04:31:38;100183.00;;;7.40
45850;BMP180;10739;52.198;20.908;2022-12-26T04:34:59;100183.00;;;7.60
45850;BMP180;10739;52.198;20.908;2022-12-26T04:37:49;100188.00;;;7.60
45850;BMP180;10739;52.198;20.908;2022-12-26T04:40:40;100193.00;;;7.70
45850;BMP180;10739;52.198;20.908;2022-12-26T04:43:29;100187.00;;;7.80
45850;BMP180;10739;52.198;20.908;2022-12-26T04:46:17;100192.00;;;7.80
45850;BMP180;10739;52.198;20.908;2022-12-26T04:48:47;100181.00;;;7.70
45850;BMP180;10739;52.198;20.908;2022-12-26T04:51:33;100175.00;;;7.70
45850;BMP180;10739;52.198;20.908;2022-12-26T04:53:59;100172.00;;;7.60
45850;BMP180;10739;52.198;20.908;2022-12-26T04:56:25;100163.00;;;7.50
45850;BMP180;10739;52.198;20.908;2022-12-26T04:58:52;100166.00;;;7.50
45850;BMP180;10739;52.198;20.908;2022-12-26T05:01:18;100152.00;;;7.30
45850;BMP180;10739;52.198;20.908;2022-12-26T05:04:03;100146.00;;;7.60
45850;BMP180;10739;52.198;20.908;2022-12-26T05:06:49;100144.00;;;7.60
45850;BMP180;10739;52.198;20.908;2022-12-26T05:09:34;100133.00;;;7.60
45850;BMP180;10739;52.198;20.908;2022-12-26T05:12:07;100136.00;;;7.50
45850;BMP180;10739;52.198;20.908;2022-12-26T05:14:35;100129.00;;;7.40
45850;BMP180;10739;52.198;20.908;2022-12-26T05:17:03;100131.00;;;7.50
45850;BMP180;10739;52.198;20.908;2022-12-26T05:19:49;100120.00;;;7.60
45850;BMP180;10739;52.198;20.908;2022-12-26T05:22:39;100111.00;;;7.60
45850;BMP180;10739;52.198;20.908;2022-12-26T05:25:32;100113.00;;;7.40
45850;BMP180;10739;52.198;20.908;2022-12-26T05:28:18;100103.00;;;7.40
45850;BMP180;10739;52.198;20.908;2022-12-26T05:31:04;100083.00;;;7.70
45850;BMP180;10739;52.198;20.908;2022-12-26T05:33:30;100057.00;;;7.70
45850;BMP180;10739;52.198;20.908;2022-12-26T05:36:18;100070.00;;;7.30
45850;BMP180;10739;52.198;20.908;2022-12-26T05:38:45;100078.00;;;7.40
45850;BMP180;10739;52.198;20.908;2022-12-26T05:41:11;100086.00;;;7.40
45850;BMP180;10739;52.198;20.908;2022-12-26T05:43:38;100106.00;;;7.20
45850;BMP180;10739;52.198;20.908;2022-12-26T05:46:04;100110.00;;;7.20
45850;BMP180;10739;52.198;20.908;2022-12-26T05:48:31;100106.00;;;7.50
45850;BMP180;10739;52.198;20.908;2022-12-26T05:50:59;100121.00;;;7.80
45850;BMP180;10739;52.198;20.908;2022-12-26T05:53:26;100113.00;;;7.60
45850;BMP180;10739;52.198;20.908;2022-12-26T05:55:53;100098.00;;;7.40
45850;BMP180;10739;52.198;20.908;2022-12-26T05:58:20;100087.00;;;7.20
45850;BMP180;10739;52.198;20.908;2022-12-26T06:00:47;100084.00;;;7.60
45850;BMP180;10739;52.198;20.908;2022-12-26T06:03:13;100073.00;;;7.10
45850;BMP180;10739;52.198;20.908;2022-12-26T06:05:39;100063.00;;;7.00
45850;BMP180;10739;52.198;20.908;2022-12-26T06:08:06;100065.00;;;7.00
45850;BMP180;10739;52.198;20.908;2022-12-26T06:10:32;100062.00;;;7.20
45850;BMP180;10739;52.198;20.908;2022-12-26T06:12:59;100083.00;;;7.40
45850;BMP180;10739;52.198;20.908;2022-12-26T06:15:26;100104.00;;;7.60
45850;BMP180;10739;52.198;20.908;2022-12-26T06:17:54;100120.00;;;7.90
45850;BMP180;10739;52.198;20.908;2022-12-26T06:20:21;100116.00;;;7.50
45850;BMP180;10739;52.198;20.908;2022-12-26T06:22:48;100113.00;;;7.80
45850;BMP180;10739;52.198;20.908;2022-12-26T06:25:14;100093.00;;;7.40
45850;BMP180;10739;52.198;20.908;2022-12-26T06:27:42;100078.00;;;7.70
45850;BMP180;10739;52.198;20.908;2022-12-26T06:30:09;100074.00;;;7.80
45850;BMP180;10739;52.198;20.908;2022-12-26T06:32:35;100041.00;;;7.40
45850;BMP180;10739;52.198;20.908;2022-12-26T06:35:02;100035.00;;;7.20
45850;BMP180;10739;52.198;20.908;2022-12-26T06:37:29;100039.00;;;7.50
45850;BMP180;10739;52.198;20.908;2022-12-26T06:39:56;100032.00;;;7.20
45850;BMP180;10739;52.198;20.908;2022-12-26T06:42:22;100051.00;;;7.40
45850;BMP180;10739;52.198;20.908;2022-12-26T06:44:48;100018.00;;;7.50
45850;BMP180;10739;52.198;20.908;2022-12-26T06:47:15;100003.00;;;7.00
45850;BMP180;10739;52.198;20.908;2022-12-26T06:49:41;100016.00;;;7.30
45850;BMP180;10739;52.198;20.908;2022-12-26T06:52:07;100021.00;;;7.40
45850;BMP180;10739;52.198;20.908;2022-12-26T06:54:36;100021.00;;;7.20
45850;BMP180;10739;52.198;20.908;2022-12-26T06:57:02;99999.00;;;7.10
45850;BMP180;10739;52.198;20.908;2022-12-26T06:59:28;99990.00;;;7.10
45850;BMP180;10739;52.198;20.908;2022-12-26T07:01:55;100008.00;;;7.30
45850;BMP180;10739;52.198;20.908;2022-12-26T07:04:21;100012.00;;;7.60
45850;BMP180;10739;52.198;20.908;2022-12-26T07:06:48;100008.00;;;7.90
45850;BMP180;10739;52.198;20.908;2022-12-26T07:09:17;100008.00;;;7.70
45850;BMP180;10739;52.198;20.908;2022-12-26T07:11:48;99978.00;;;7.30
45850;BMP180;10739;52.198;20.908;2022-12-26T07:14:16;99996.00;;;7.60
45850;BMP180;10739;52.198;20.908;2022-12-26T07:16:44;99976.00;;;7.80
45850;BMP180;10739;52.198;20.908;2022-12-26T07:19:14;99982.00;;;7.70
45850;BMP180;10739;52.198;20.908;2022-12-26T07:21:42;99996.00;;;7.60
45850;BMP180;10739;52.198;20.908;2022-12-26T07:24:18;99987.00;;;7.60
45850;BMP180;10739;52.198;20.908;2022-12-26T07:26:46;99984.00;;;7.40
45850;BMP180;10739;52.198;20.908;2022-12-26T07:29:14;99984.00;;;7.10
45850;BMP180;10739;52.198;20.908;2022-12-26T07:31:41;99982.00;;;7.50
45850;BMP180;10739;52.198;20.908;2022-12-26T07:34:08;99961.00;;;7.30
45850;BMP180;10739;52.198;20.908;2022-12-26T07:36:34;99968.00;;;7.30
45850;BMP180;10739;52.198;20.908;2022-12-26T07:39:01;99980.00;;;7.10
45850;BMP180;10739;52.198;20.908;2022-12-26T07:41:29;99999.00;;;7.30
45850;BMP180;10739;52.198;20.908;2022-12-26T07:44:15;99991.00;;;7.40
45850;BMP180;10739;52.198;20.908;2022-12-26T07:46:42;99985.00;;;7.50
45850;BMP180;10739;52.198;20.908;2022-12-26T07:49:10;99988.00;;;7.30
45850;BMP180;10739;52.198;20.908;2022-12-26T07:51:37;99972.00;;;7.70
45850;BMP180;10739;52.198;20.908;2022-12-26T07:54:04;99992.00;;;7.50
45850;BMP180;10739;52.198;20.908;2022-12-26T07:56:31;99989.00;;;7.50
45850;BMP180;10739;52.198;20.908;2022-12-26T07:58:58;99982.00;;;7.60
45850;BMP180;10739;52.198;20.908;2022-12-26T08:01:25;99980.00;;;7.80
45850;BMP180;10739;52.198;20.908;2022-12-26T08:03:52;99961.00;;;7.50
45850;BMP180;10739;52.198;20.908;2022-12-26T08:06:19;99953.00;;;7.80
45850;BMP180;10739;52.198;20.908;2022-12-26T08:08:46;99957.00;;;7.60
45850;BMP180;10739;52.198;20.908;2022-12-26T08:11:19;99955.00;;;7.80
45850;BMP180;10739;52.198;20.908;2022-12-26T08:13:47;99972.00;;;7.90
45850;BMP180;10739;52.198;20.908;2022-12-26T08:16:15;99966.00;;;8.20
45850;BMP180;10739;52.198;20.908;2022-12-26T08:18:42;99971.00;;;8.30
45850;BMP180;10739;52.198;20.908;2022-12-26T08:21:10;99971.00;;;8.10
45850;BMP180;10739;52.198;20.908;2022-12-26T08:23:38;99959.00;;;7.90
45850;BMP180;10739;52.198;20.908;2022-12-26T08:26:12;99960.00;;;7.90
45850;BMP180;10739;52.198;20.908;2022-12-26T08:28:41;99956.00;;;7.90
45850;BMP180;10739;52.198;20.908;2022-12-26T08:31:11;99959.00;;;8.00
45850;BMP180;10739;52.198;20.908;2022-12-26T08:33:37;99946.00;;;7.90
45850;BMP180;10739;52.198;20.908;2022-12-26T08:36:07;99948.00;;;7.90
45850;BMP180;10739;52.198;20.908;2022-12-26T08:38:35;99932.00;;;7.80
45850;BMP180;10739;52.198;20.908;2022-12-26T08:41:03;99946.00;;;8.10
45850;BMP180;10739;52.198;20.908;2022-12-26T08:43:30;99938.00;;;8.40
45850;BMP180;10739;52.198;20.908;2022-12-26T08:46:04;99941.00;;;8.40
45850;BMP180;10739;52.198;20.908;2022-12-26T08:48:32;99931.00;;;8.20
45850;BMP180;10739;52.198;20.908;2022-12-26T08:51:06;99925.00;;;8.40
45850;BMP180;10739;52.198;20.908;2022-12-26T08:53:35;99914.00;;;8.10
45850;BMP180;10739;52.198;20.908;2022-12-26T08:56:05;99906.00;;;8.20
45850;BMP180;10739;52.198;20.908;2022-12-26T08:58:33;99907.00;;;8.20
45850;BMP180;10739;52.198;20.908;2022-12-26T09:01:18;99905.00;;;8.00
45850;BMP180;10739;52.198;20.908;2022-12-26T09:03:46;99916.00;;;8.20
45850;BMP180;10739;52.198;20.908;2022-12-26T09:06:14;99918.00;;;8.30
45850;BMP180;10739;52.198;20.908;2022-12-26T09:08:41;99928.00;;;8.40
45850;BMP180;10739;52.198;20.908;2022-12-26T09:11:13;99924.00;;;8.50
45850;BMP180;10739;52.198;20.908;2022-12-26T09:13:41;99914.00;;;8.70
45850;BMP180;10739;52.198;20.908;2022-12-26T09:18:37;99901.00;;;8.60
45850;BMP180;10739;52.198;20.908;2022-12-26T09:21:07;99906.00;;;8.50
45850;BMP180;10739;52.198;20.908;2022-12-26T09:23:34;99899.00;;;8.40
45850;BMP180;10739;52.198;20.908;2022-12-26T09:28:37;99886.00;;;8.50
45850;BMP180;10739;52.198;20.908;2022-12-26T09:31:15;99887.00;;;8.60
45850;BMP180;10739;52.198;20.908;2022-12-26T09:33:42;99876.00;;;8.60
45850;BMP180;10739;52.198;20.908;2022-12-26T09:36:18;99866.00;;;8.70
45850;BMP180;10739;52.198;20.908;2022-12-26T09:38:51;99878.00;;;9.10
45850;BMP180;10739;52.198;20.908;2022-12-26T09:41:47;99860.00;;;8.90
45850;BMP180;10739;52.198;20.908;2022-12-26T09:44:44;99869.00;;;8.90
45850;BMP180;10739;52.198;20.908;2022-12-26T09:47:35;99874.00;;;8.90
45850;BMP180;10739;52.198;20.908;2022-12-26T09:50:19;99865.00;;;9.20
45850;BMP180;10739;52.198;20.908;2022-12-26T09:53:04;99871.00;;;9.20
45850;BMP180;10739;52.198;20.908;2022-12-26T09:55:52;99867.00;;;9.40
45850;BMP180;10739;52.198;20.908;2022-12-26T09:58:27;99869.00;;;9.40
45850;BMP180;10739;52.198;20.908;2022-12-26T10:01:23;99862.00;;;9.50
45850;BMP180;10739;52.198;20.908;2022-12-26T10:03:57;99874.00;;;9.60
45850;BMP180;10739;52.198;20.908;2022-12-26T10:06:53;99873.00;;;9.90
45850;BMP180;10739;52.198;20.908;2022-12-26T10:15:42;99864.00;;;10.50
45850;BMP180;10739;52.198;20.908;2022-12-26T10:24:14;99857.00;;;10.30
45850;BMP180;10739;52.198;20.908;2022-12-26T10:26:49;99851.00;;;10.40
45850;BMP180;10739;52.198;20.908;2022-12-26T10:29:27;99839.00;;;10.30
45850;BMP180;10739;52.198;20.908;2022-12-26T10:32:16;99842.00;;;10.20
45850;BMP180;10739;52.198;20.908;2022-12-26T10:34:48;99839.00;;;10.20
45850;BMP180;10739;52.198;20.908;2022-12-26T10:37:40;99827.00;;;10.50
45850;BMP180;10739;52.198;20.908;2022-12-26T10:40:38;99827.00;;;10.90
45850;BMP180;10739;52.198;20.908;2022-12-26T10:43:30;99821.00;;;10.90
45850;BMP180;10739;52.198;20.908;2022-12-26T10:48:36;99809.00;;;11.10
45850;BMP180;10739;52.198;20.908;2022-12-26T10:51:03;99798.00;;;10.70
45850;BMP180;10739;52.198;20.908;2022-12-26T10:53:39;99801.00;;;10.40
45850;BMP180;10739;52.198;20.908;2022-12-26T10:56:08;99798.00;;;11.00
45850;BMP180;10739;52.198;20.908;2022-12-26T10:58:37;99800.00;;;10.70
45850;BMP180;10739;52.198;20.908;2022-12-26T11:01:36;99794.00;;;11.10
45850;BMP180;10739;52.198;20.908;2022-12-26T11:04:13;99799.00;;;10.90
45850;BMP180;10739;52.198;20.908;2022-12-26T11:06:42;99810.00;;;11.20
45850;BMP180;10739;52.198;20.908;2022-12-26T11:09:42;99806.00;;;11.20
45850;BMP180;10739;52.198;20.908;2022-12-26T11:12:43;99804.00;;;11.30
45850;BMP180;10739;52.198;20.908;2022-12-26T11:15:37;99802.00;;;11.10
45850;BMP180;10739;52.198;20.908;2022-12-26T11:18:27;99796.00;;;11.70
45850;BMP180;10739;52.198;20.908;2022-12-26T11:21:21;99791.00;;;11.60
45850;BMP180;10739;52.198;20.908;2022-12-26T11:24:09;99786.00;;;11.60
45850;BMP180;10739;52.198;20.908;2022-12-26T11:26:37;99797.00;;;11.80
45850;BMP180;10739;52.198;20.908;2022-12-26T11:29:21;99803.00;;;11.70
45850;BMP180;10739;52.198;20.908;2022-12-26T11:31:56;99803.00;;;11.90
45850;BMP180;10739;52.198;20.908;2022-12-26T11:34:34;99797.00;;;11.90
45850;BMP180;10739;52.198;20.908;2022-12-26T11:37:03;99792.00;;;12.10
45850;BMP180;10739;52.198;20.908;2022-12-26T11:39:35;99791.00;;;12.10
45850;BMP180;10739;52.198;20.908;2022-12-26T11:42:20;99788.00;;;12.30
45850;BMP180;10739;52.198;20.908;2022-12-26T11:44:49;99782.00;;;12.60
45850;BMP180;10739;52.198;20.908;2022-12-26T11:47:22;99788.00;;;12.60
45850;BMP180;10739;52.198;20.908;2022-12-26T11:55:36;99768.00;;;12.70
45850;BMP180;10739;52.198;20.908;2022-12-26T11:58:28;99773.00;;;12.80
45850;BMP180;10739;52.198;20.908;2022-12-26T12:06:24;99758.00;;;12.80
45850;BMP180;10739;52.198;20.908;2022-12-26T12:12:00;99760.00;;;13.10
45850;BMP180;10739;52.198;20.908;2022-12-26T12:26:17;99784.00;;;13.10
45850;BMP180;10739;52.198;20.908;2022-12-26T12:29:13;99773.00;;;12.60
45850;BMP180;10739;52.198;20.908;2022-12-26T12:32:09;99778.00;;;12.90
45850;BMP180;10739;52.198;20.908;2022-12-26T12:53:03;99783.00;;;13.00
45850;BMP180;10739;52.198;20.908;2022-12-26T13:01:48;99786.00;;;12.90
45850;BMP180;10739;52.198;20.908;2022-12-26T13:04:28;99786.00;;;12.90
45850;BMP180;10739;52.198;20.908;2022-12-26T13:07:09;99791.00;;;13.20
45850;BMP180;10739;52.198;20.908;2022-12-26T13:10:13;99788.00;;;12.80
45850;BMP180;10739;52.198;20.908;2022-12-26T13:12:43;99792.00;;;13.00
45850;BMP180;10739;52.198;20.908;2022-12-26T13:15:35;99788.00;;;13.10
45850;BMP180;10739;52.198;20.908;2022-12-26T13:18:17;99786.00;;;13.20
45850;BMP180;10739;52.198;20.908;2022-12-26T13:21:07;99777.00;;;13.10
45850;BMP180;10739;52.198;20.908;2022-12-26T13:24:04;99789.00;;;13.20
45850;BMP180;10739;52.198;20.908;2022-12-26T13:29:45;99791.00;;;13.40
45850;BMP180;10739;52.198;20.908;2022-12-26T13:32:25;99799.00;;;13.10
45850;BMP180;10739;52.198;20.908;2022-12-26T13:34:57;99797.00;;;13.40
45850;BMP180;10739;52.198;20.908;2022-12-26T13:37:55;99798.00;;;13.30
45850;BMP180;10739;52.198;20.908;2022-12-26T13:40:29;99795.00;;;13.50
45850;BMP180;10739;52.198;20.908;2022-12-26T13:43:08;99784.00;;;13.40
45850;BMP180;10739;52.198;20.908;2022-12-26T13:45:59;99775.00;;;13.30
45850;BMP180;10739;52.198;20.908;2022-12-26T13:51:02;99776.00;;;13.50
45850;BMP180;10739;52.198;20.908;2022-12-26T13:53:38;99786.00;;;13.50
45850;BMP180;10739;52.198;20.908;2022-12-26T14:07:33;99778.00;;;13.60
45850;BMP180;10739;52.198;20.908;2022-12-26T14:13:26;99787.00;;;13.40
45850;BMP180;10739;52.198;20.908;2022-12-26T14:16:09;99791.00;;;13.00
45850;BMP180;10739;52.198;20.908;2022-12-26T14:24:25;99797.00;;;13.40
45850;BMP180;10739;52.198;20.908;2022-12-26T14:30:04;99795.00;;;13.20
45850;BMP180;10739;52.198;20.908;2022-12-26T14:47:53;99786.00;;;13.50
45850;BMP180;10739;52.198;20.908;2022-12-26T14:53:33;99788.00;;;13.70
45850;BMP180;10739;52.198;20.908;2022-12-26T14:58:43;99790.00;;;13.40
45850;BMP180;10739;52.198;20.908;2022-12-26T15:06:52;99805.00;;;13.50
45850;BMP180;10739;52.198;20.908;2022-12-26T15:16:21;99800.00;;;13.50
45850;BMP180;10739;52.198;20.908;2022-12-26T15:31:30;99799.00;;;13.00
45850;BMP180;10739;52.198;20.908;2022-12-26T15:34:43;99805.00;;;13.10
45850;BMP180;10739;52.198;20.908;2022-12-26T15:41:34;99800.00;;;12.80
45850;BMP180;10739;52.198;20.908;2022-12-26T15:44:10;99797.00;;;12.80
45850;BMP180;10739;52.198;20.908;2022-12-26T15:46:48;99796.00;;;13.30
45850;BMP180;10739;52.198;20.908;2022-12-26T15:49:30;99802.00;;;13.40
45850;BMP180;10739;52.198;20.908;2022-12-26T16:00:53;99800.00;;;13.00
45850;BMP180;10739;52.198;20.908;2022-12-26T16:03:50;99798.00;;;12.70
45850;BMP180;10739;52.198;20.908;2022-12-26T16:11:56;99792.00;;;12.70
45850;BMP180;10739;52.198;20.908;2022-12-26T16:14:36;99787.00;;;12.40
45850;BMP180;10739;52.198;20.908;2022-12-26T16:17:19;99788.00;;;12.50
45850;BMP180;10739;52.198;20.908;2022-12-26T16:19:51;99786.00;;;12.50
45850;BMP180;10739;52.198;20.908;2022-12-26T16:22:39;99782.00;;;12.80
45850;BMP180;10739;52.198;20.908;2022-12-26T16:25:24;99777.00;;;12.80
45850;BMP180;10739;52.198;20.908;2022-12-26T16:27:56;99774.00;;;12.70
45850;BMP180;10739;52.198;20.908;2022-12-26T16:30:33;99782.00;;;12.40
45850;BMP180;10739;52.198;20.908;2022-12-26T16:33:02;99797.00;;;12.40
45850;BMP180;10739;52.198;20.908;2022-12-26T16:35:35;99789.00;;;12.50
45850;BMP180;10739;52.198;20.908;2022-12-26T16:38:07;99796.00;;;12.80
45850;BMP180;10739;52.198;20.908;2022-12-26T16:40:49;99805.00;;;12.50
45850;BMP180;10739;52.198;20.908;2022-12-26T16:43:28;99808.00;;;12.40
45850;BMP180;10739;52.198;20.908;2022-12-26T16:46:03;99794.00;;;12.80
45850;BMP180;10739;52.198;20.908;2022-12-26T16:48:32;99798.00;;;12.70
45850;BMP180;10739;52.198;20.908;2022-12-26T16:57:02;99785.00;;;12.80
45850;BMP180;10739;52.198;20.908;2022-12-26T16:59:57;99791.00;;;12.60
45850;BMP180;10739;52.198;20.908;2022-12-26T17:02:33;99787.00;;;13.00
45850;BMP180;10739;52.198;20.908;2022-12-26T17:05:26;99784.00;;;13.10
45850;BMP180;10739;52.198;20.908;2022-12-26T17:07:58;99801.00;;;13.30
45850;BMP180;10739;52.198;20.908;2022-12-26T17:10:33;99805.00;;;13.30
45850;BMP180;10739;52.198;20.908;2022-12-26T17:13:05;99810.00;;;13.10
45850;BMP180;10739;52.198;20.908;2022-12-26T17:15:35;99799.00;;;12.90
45850;BMP180;10739;52.198;20.908;2022-12-26T17:18:47;99805.00;;;13.10
45850;BMP180;10739;52.198;20.908;2022-12-26T17:21:30;99797.00;;;12.90
45850;BMP180;10739;52.198;20.908;2022-12-26T17:26:47;99788.00;;;12.30
45850;BMP180;10739;52.198;20.908;2022-12-26T17:29:46;99789.00;;;12.70
45850;BMP180;10739;52.198;20.908;2022-12-26T17:32:30;99790.00;;;12.40
45850;BMP180;10739;52.198;20.908;2022-12-26T17:35:17;99782.00;;;12.50
45850;BMP180;10739;52.198;20.908;2022-12-26T17:37:48;99784.00;;;12.40
45850;BMP180;10739;52.198;20.908;2022-12-26T17:40:25;99780.00;;;12.70
45850;BMP180;10739;52.198;20.908;2022-12-26T17:43:29;99785.00;;;12.40
45850;BMP180;10739;52.198;20.908;2022-12-26T17:45:56;99766.00;;;12.30
45850;BMP180;10739;52.198;20.908;2022-12-26T17:48:23;99782.00;;;12.30
45850;BMP180;10739;52.198;20.908;2022-12-26T17:50:59;99782.00;;;12.40
45850;BMP180;10739;52.198;20.908;2022-12-26T17:53:30;99785.00;;;12.20
45850;BMP180;10739;52.198;20.908;2022-12-26T17:56:05;99796.00;;;12.40
45850;BMP180;10739;52.198;20.908;2022-12-26T17:58:33;99787.00;;;12.40
45850;BMP180;10739;52.198;20.908;2022-12-26T18:01:01;99785.00;;;12.30
45850;BMP180;10739;52.198;20.908;2022-12-26T18:03:28;99783.00;;;12.30
45850;BMP180;10739;52.198;20.908;2022-12-26T18:05:55;99790.00;;;12.50
45850;BMP180;10739;52.198;20.908;2022-12-26T18:08:28;99791.00;;;12.30
45850;BMP180;10739;52.198;20.908;2022-12-26T18:10:55;99794.00;;;12.40
45850;BMP180;10739;52.198;20.908;2022-12-26T18:13:22;99802.00;;;12.40
45850;BMP180;10739;52.198;20.908;2022-12-26T18:15:54;99787.00;;;12.50
45850;BMP180;10739;52.198;20.908;2022-12-26T18:18:37;99797.00;;;12.40
45850;BMP180;10739;52.198;20.908;2022-12-26T18:21:08;99791.00;;;12.40
45850;BMP180;10739;52.198;20.908;2022-12-26T18:23:35;99794.00;;;12.20
45850;BMP180;10739;52.198;20.908;2022-12-26T18:26:07;99792.00;;;12.30